sensor_id;sensor_type;location;lat;lon;timestamp;P1;durP1;ratioP1;P2;durP2;ratioP2
58242;SDS011;50118;53.232;8.252;2023-04-24T00:00:12;8.60;;;6.40;;
58242;SDS011;50118;53.232;8.252;2023-04-24T00:02:39;8.98;;;6.03;;
58242;SDS011;50118;53.232;8.252;2023-04-24T00:05:06;9.05;;;5.75;;
58242;SDS011;50118;53.232;8.252;2023-04-24T00:07:32;7.78;;;5.78;;
58242;SDS011;50118;53.232;8.252;2023-04-24T00:09:58;7.05;;;5.70;;
58242;SDS011;50118;53.232;8.252;2023-04-24T00:12:24;8.00;;;6.10;;
58242;SDS011;50118;53.232;8.252;2023-04-24T00:14:50;7.43;;;5.95;;
58242;SDS011;50118;53.232;8.252;2023-04-24T00:17:15;9.27;;;6.25;;
58242;SDS011;50118;53.232;8.252;2023-04-24T00:19:44;7.47;;;5.95;;
58242;SDS011;50118;53.232;8.252;2023-04-24T00:22:10;7.15;;;5.57;;
58242;SDS011;50118;53.232;8.252;2023-04-24T00:24:35;7.75;;;5.50;;
58242;SDS011;50118;53.232;8.252;2023-04-24T00:27:01;7.22;;;5.43;;
58242;SDS011;50118;53.232;8.252;2023-04-24T00:29:27;7.38;;;5.60;;
58242;SDS011;50118;53.232;8.252;2023-04-24T00:31:53;7.20;;;5.35;;
58242;SDS011;50118;53.232;8.252;2023-04-24T00:34:19;6.60;;;4.10;;
58242;SDS011;50118;53.232;8.252;2023-04-24T00:36:44;5.13;;;3.58;;
58242;SDS011;50118;53.232;8.252;2023-04-24T00:39:10;3.80;;;3.17;;
58242;SDS011;50118;53.232;8.252;2023-04-24T00:41:35;3.47;;;2.65;;
58242;SDS011;50118;53.232;8.252;2023-04-24T00:44:01;4.00;;;2.35;;
58242;SDS011;50118;53.232;8.252;2023-04-24T00:46:26;2.70;;;2.05;;
58242;SDS011;50118;53.232;8.252;2023-04-24T00:48:52;3.72;;;2.03;;
58242;SDS011;50118;53.232;8.252;2023-04-24T00:51:18;2.40;;;1.95;;
58242;SDS011;50118;53.232;8.252;2023-04-24T00:53:43;3.28;;;2.10;;
58242;SDS011;50118;53.232;8.252;2023-04-24T00:56:09;4.50;;;2.40;;
58242;SDS011;50118;53.232;8.252;2023-04-24T00:58:34;3.65;;;2.20;;
58242;SDS011;50118;53.232;8.252;2023-04-24T01:01:00;2.90;;;2.25;;
58242;SDS011;50118;53.232;8.252;2023-04-24T01:03:28;3.58;;;2.42;;
58242;SDS011;50118;53.232;8.252;2023-04-24T01:05:56;3.25;;;2.65;;
58242;SDS011;50118;53.232;8.252;2023-04-24T01:08:23;3.00;;;2.50;;
58242;SDS011;50118;53.232;8.252;2023-04-24T01:10:50;3.92;;;2.50;;
58242;SDS011;50118;53.232;8.252;2023-04-24T01:13:17;3.88;;;2.70;;
58242;SDS011;50118;53.232;8.252;2023-04-24T01:15:46;3.70;;;3.10;;
58242;SDS011;50118;53.232;8.252;2023-04-24T01:18:12;3.60;;;3.00;;
58242;SDS011;50118;53.232;8.252;2023-04-24T01:20:42;3.80;;;3.40;;
58242;SDS011;50118;53.232;8.252;2023-04-24T01:23:09;4.43;;;3.60;;
58242;SDS011;50118;53.232;8.252;2023-04-24T01:25:35;4.55;;;3.47;;
58242;SDS011;50118;53.232;8.252;2023-04-24T01:28:02;4.20;;;3.70;;
58242;SDS011;50118;53.232;8.252;2023-04-24T01:30:28;4.50;;;3.45;;
58242;SDS011;50118;53.232;8.252;2023-04-24T01:32:54;4.28;;;3.60;;
58242;SDS011;50118;53.232;8.252;2023-04-24T01:35:20;3.80;;;3.30;;
58242;SDS011;50118;53.232;8.252;2023-04-24T01:37:46;3.90;;;3.30;;
58242;SDS011;50118;53.232;8.252;2023-04-24T01:40:11;4.82;;;3.70;;
58242;SDS011;50118;53.232;8.252;2023-04-24T01:42:37;3.80;;;3.30;;
58242;SDS011;50118;53.232;8.252;2023-04-24T01:45:03;3.78;;;3.22;;
58242;SDS011;50118;53.232;8.252;2023-04-24T01:47:30;4.20;;;3.08;;
58242;SDS011;50118;53.232;8.252;2023-04-24T01:49:56;4.05;;;3.20;;
58242;SDS011;50118;53.232;8.252;2023-04-24T01:52:22;3.75;;;3.20;;
58242;SDS011;50118;53.232;8.252;2023-04-24T01:54:48;4.07;;;3.17;;
58242;SDS011;50118;53.232;8.252;2023-04-24T01:57:14;5.22;;;3.20;;
58242;SDS011;50118;53.232;8.252;2023-04-24T01:59:39;3.65;;;3.22;;
58242;SDS011;50118;53.232;8.252;2023-04-24T02:02:05;4.25;;;3.15;;
58242;SDS011;50118;53.232;8.252;2023-04-24T02:04:31;3.40;;;3.10;;
58242;SDS011;50118;53.232;8.252;2023-04-24T02:06:56;3.95;;;3.28;;
58242;SDS011;50118;53.232;8.252;2023-04-24T02:09:22;4.68;;;3.22;;
58242;SDS011;50118;53.232;8.252;2023-04-24T02:11:47;4.75;;;3.63;;
58242;SDS011;50118;53.232;8.252;2023-04-24T02:14:13;4.22;;;3.80;;
58242;SDS011;50118;53.232;8.252;2023-04-24T02:16:38;5.50;;;4.20;;
58242;SDS011;50118;53.232;8.252;2023-04-24T02:19:03;5.38;;;4.70;;
58242;SDS011;50118;53.232;8.252;2023-04-24T02:21:29;6.30;;;5.13;;
58242;SDS011;50118;53.232;8.252;2023-04-24T02:23:56;6.13;;;5.03;;
58242;SDS011;50118;53.232;8.252;2023-04-24T02:26:21;6.38;;;5.32;;
58242;SDS011;50118;53.232;8.252;2023-04-24T02:28:47;7.13;;;5.45;;
58242;SDS011;50118;53.232;8.252;2023-04-24T02:31:13;5.82;;;5.22;;
58242;SDS011;50118;53.232;8.252;2023-04-24T02:33:38;6.80;;;5.35;;
58242;SDS011;50118;53.232;8.252;2023-04-24T02:36:04;7.70;;;5.88;;
58242;SDS011;50118;53.232;8.252;2023-04-24T02:38:29;6.93;;;6.13;;
58242;SDS011;50118;53.232;8.252;2023-04-24T02:40:55;7.85;;;6.40;;
58242;SDS011;50118;53.232;8.252;2023-04-24T02:43:20;7.07;;;6.28;;
58242;SDS011;50118;53.232;8.252;2023-04-24T02:45:46;7.43;;;6.35;;
58242;SDS011;50118;53.232;8.252;2023-04-24T02:48:11;6.82;;;5.63;;
58242;SDS011;50118;53.232;8.252;2023-04-24T02:50:37;6.72;;;5.53;;
58242;SDS011;50118;53.232;8.252;2023-04-24T02:53:03;7.40;;;6.25;;
58242;SDS011;50118;53.232;8.252;2023-04-24T02:55:28;8.38;;;6.28;;
58242;SDS011;50118;53.232;8.252;2023-04-24T02:57:54;8.75;;;6.40;;
58242;SDS011;50118;53.232;8.252;2023-04-24T03:00:19;7.57;;;6.30;;
58242;SDS011;50118;53.232;8.252;2023-04-24T03:02:45;8.77;;;6.57;;
58242;SDS011;50118;53.232;8.252;2023-04-24T03:05:11;8.95;;;6.38;;
58242;SDS011;50118;53.232;8.252;2023-04-24T03:07:37;7.78;;;6.20;;
58242;SDS011;50118;53.232;8.252;2023-04-24T03:10:02;8.30;;;6.47;;
58242;SDS011;50118;53.232;8.252;2023-04-24T03:12:29;9.23;;;6.15;;
58242;SDS011;50118;53.232;8.252;2023-04-24T03:14:55;8.23;;;6.20;;
58242;SDS011;50118;53.232;8.252;2023-04-24T03:17:20;8.02;;;6.38;;
58242;SDS011;50118;53.232;8.252;2023-04-24T03:19:45;7.82;;;5.70;;
58242;SDS011;50118;53.232;8.252;2023-04-24T03:22:11;8.25;;;6.60;;
58242;SDS011;50118;53.232;8.252;2023-04-24T03:24:37;8.52;;;6.30;;
58242;SDS011;50118;53.232;8.252;2023-04-24T03:27:02;9.30;;;6.47;;
58242;SDS011;50118;53.232;8.252;2023-04-24T03:29:27;8.43;;;6.70;;
58242;SDS011;50118;53.232;8.252;2023-04-24T03:31:56;8.55;;;5.93;;
58242;SDS011;50118;53.232;8.252;2023-04-24T03:34:21;8.65;;;6.32;;
58242;SDS011;50118;53.232;8.252;2023-04-24T03:36:47;8.30;;;6.13;;
58242;SDS011;50118;53.232;8.252;2023-04-24T03:39:12;8.13;;;6.00;;
58242;SDS011;50118;53.232;8.252;2023-04-24T03:41:38;7.57;;;5.60;;
58242;SDS011;50118;53.232;8.252;2023-04-24T03:44:03;7.38;;;5.43;;
58242;SDS011;50118;53.232;8.252;2023-04-24T03:46:29;8.43;;;5.93;;
58242;SDS011;50118;53.232;8.252;2023-04-24T03:48:54;9.05;;;6.05;;
58242;SDS011;50118;53.232;8.252;2023-04-24T03:51:20;7.75;;;5.85;;
58242;SDS011;50118;53.232;8.252;2023-04-24T03:53:45;8.65;;;6.22;;
58242;SDS011;50118;53.232;8.252;2023-04-24T03:56:11;8.32;;;5.88;;
58242;SDS011;50118;53.232;8.252;2023-04-24T03:58:36;7.97;;;5.90;;
58242;SDS011;50118;53.232;8.252;2023-04-24T04:01:02;8.55;;;6.10;;
58242;SDS011;50118;53.232;8.252;2023-04-24T04:03:27;9.60;;;6.30;;
58242;SDS011;50118;53.232;8.252;2023-04-24T04:05:53;8.32;;;6.40;;
58242;SDS011;50118;53.232;8.252;2023-04-24T04:08:19;8.18;;;5.68;;
58242;SDS011;50118;53.232;8.252;2023-04-24T04:10:44;7.97;;;5.30;;
58242;SDS011;50118;53.232;8.252;2023-04-24T04:13:10;7.68;;;5.82;;
58242;SDS011;50118;53.232;8.252;2023-04-24T04:15:36;8.63;;;6.10;;
58242;SDS011;50118;53.232;8.252;2023-04-24T04:18:01;8.35;;;5.78;;
58242;SDS011;50118;53.232;8.252;2023-04-24T04:20:27;7.88;;;5.28;;
58242;SDS011;50118;53.232;8.252;2023-04-24T04:22:52;8.25;;;5.55;;
58242;SDS011;50118;53.232;8.252;2023-04-24T04:25:18;8.95;;;5.15;;
58242;SDS011;50118;53.232;8.252;2023-04-24T04:27:44;6.93;;;5.10;;
58242;SDS011;50118;53.232;8.252;2023-04-24T04:30:16;8.32;;;5.80;;
58242;SDS011;50118;53.232;8.252;2023-04-24T04:32:43;8.13;;;5.65;;
58242;SDS011;50118;53.232;8.252;2023-04-24T04:35:08;7.72;;;5.55;;
58242;SDS011;50118;53.232;8.252;2023-04-24T04:37:34;8.32;;;5.93;;
58242;SDS011;50118;53.232;8.252;2023-04-24T04:40:00;7.47;;;5.30;;
58242;SDS011;50118;53.232;8.252;2023-04-24T04:42:25;8.38;;;5.55;;
58242;SDS011;50118;53.232;8.252;2023-04-24T04:44:52;7.40;;;5.45;;
58242;SDS011;50118;53.232;8.252;2023-04-24T04:47:18;8.18;;;6.10;;
58242;SDS011;50118;53.232;8.252;2023-04-24T04:49:48;8.07;;;6.10;;
58242;SDS011;50118;53.232;8.252;2023-04-24T04:52:13;7.95;;;6.18;;
58242;SDS011;50118;53.232;8.252;2023-04-24T04:54:39;8.15;;;6.10;;
58242;SDS011;50118;53.232;8.252;2023-04-24T04:57:05;8.52;;;5.93;;
58242;SDS011;50118;53.232;8.252;2023-04-24T04:59:30;9.20;;;6.68;;
58242;SDS011;50118;53.232;8.252;2023-04-24T05:01:56;8.65;;;6.40;;
58242;SDS011;50118;53.232;8.252;2023-04-24T05:04:21;8.70;;;6.80;;
58242;SDS011;50118;53.232;8.252;2023-04-24T05:06:46;8.38;;;6.85;;
58242;SDS011;50118;53.232;8.252;2023-04-24T05:09:12;8.90;;;6.78;;
58242;SDS011;50118;53.232;8.252;2023-04-24T05:11:37;11.02;;;7.10;;
58242;SDS011;50118;53.232;8.252;2023-04-24T05:14:03;9.60;;;7.10;;
58242;SDS011;50118;53.232;8.252;2023-04-24T05:16:28;10.23;;;7.53;;
58242;SDS011;50118;53.232;8.252;2023-04-24T05:18:55;10.40;;;7.25;;
58242;SDS011;50118;53.232;8.252;2023-04-24T05:21:21;10.32;;;7.55;;
58242;SDS011;50118;53.232;8.252;2023-04-24T05:23:46;9.43;;;7.25;;
58242;SDS011;50118;53.232;8.252;2023-04-24T05:26:13;11.00;;;7.60;;
58242;SDS011;50118;53.232;8.252;2023-04-24T05:28:38;9.50;;;7.03;;
58242;SDS011;50118;53.232;8.252;2023-04-24T05:31:04;11.35;;;7.40;;
58242;SDS011;50118;53.232;8.252;2023-04-24T05:33:29;9.85;;;7.13;;
58242;SDS011;50118;53.232;8.252;2023-04-24T05:35:55;9.93;;;7.18;;
58242;SDS011;50118;53.232;8.252;2023-04-24T05:38:21;9.13;;;6.90;;
58242;SDS011;50118;53.232;8.252;2023-04-24T05:40:46;10.13;;;7.68;;
58242;SDS011;50118;53.232;8.252;2023-04-24T05:43:12;10.70;;;7.50;;
58242;SDS011;50118;53.232;8.252;2023-04-24T05:45:38;10.55;;;7.13;;
58242;SDS011;50118;53.232;8.252;2023-04-24T05:48:03;9.98;;;7.25;;
58242;SDS011;50118;53.232;8.252;2023-04-24T05:50:29;9.35;;;6.60;;
58242;SDS011;50118;53.232;8.252;2023-04-24T05:52:55;10.60;;;7.28;;
58242;SDS011;50118;53.232;8.252;2023-04-24T05:55:23;11.10;;;7.47;;
58242;SDS011;50118;53.232;8.252;2023-04-24T05:57:49;10.95;;;7.70;;
58242;SDS011;50118;53.232;8.252;2023-04-24T06:00:14;10.10;;;7.38;;
58242;SDS011;50118;53.232;8.252;2023-04-24T06:02:40;10.98;;;7.88;;
58242;SDS011;50118;53.232;8.252;2023-04-24T06:05:06;11.45;;;7.75;;
58242;SDS011;50118;53.232;8.252;2023-04-24T06:07:33;10.98;;;7.68;;
58242;SDS011;50118;53.232;8.252;2023-04-24T06:09:59;10.45;;;7.10;;
58242;SDS011;50118;53.232;8.252;2023-04-24T06:12:25;11.88;;;8.20;;
58242;SDS011;50118;53.232;8.252;2023-04-24T06:14:51;11.38;;;7.20;;
58242;SDS011;50118;53.232;8.252;2023-04-24T06:17:16;11.10;;;7.47;;
58242;SDS011;50118;53.232;8.252;2023-04-24T06:19:42;9.77;;;7.28;;
58242;SDS011;50118;53.232;8.252;2023-04-24T06:22:07;11.02;;;7.85;;
58242;SDS011;50118;53.232;8.252;2023-04-24T06:24:33;11.20;;;7.53;;
58242;SDS011;50118;53.232;8.252;2023-04-24T06:26:59;9.93;;;7.28;;
58242;SDS011;50118;53.232;8.252;2023-04-24T06:29:26;11.18;;;7.20;;
58242;SDS011;50118;53.232;8.252;2023-04-24T06:31:52;10.43;;;7.25;;
58242;SDS011;50118;53.232;8.252;2023-04-24T06:34:17;10.75;;;7.60;;
58242;SDS011;50118;53.232;8.252;2023-04-24T06:36:43;10.07;;;7.40;;
58242;SDS011;50118;53.232;8.252;2023-04-24T06:39:08;11.55;;;7.55;;
58242;SDS011;50118;53.232;8.252;2023-04-24T06:41:34;10.50;;;7.50;;
58242;SDS011;50118;53.232;8.252;2023-04-24T06:43:59;9.15;;;6.80;;
58242;SDS011;50118;53.232;8.252;2023-04-24T06:46:25;11.10;;;8.07;;
58242;SDS011;50118;53.232;8.252;2023-04-24T06:48:52;11.68;;;7.72;;
58242;SDS011;50118;53.232;8.252;2023-04-24T06:51:24;11.45;;;8.02;;
58242;SDS011;50118;53.232;8.252;2023-04-24T06:53:54;10.98;;;7.32;;
58242;SDS011;50118;53.232;8.252;2023-04-24T06:56:21;11.82;;;7.28;;
58242;SDS011;50118;53.232;8.252;2023-04-24T06:58:47;10.25;;;7.47;;
58242;SDS011;50118;53.232;8.252;2023-04-24T07:01:13;11.73;;;8.13;;
58242;SDS011;50118;53.232;8.252;2023-04-24T07:03:38;11.43;;;7.50;;
58242;SDS011;50118;53.232;8.252;2023-04-24T07:06:04;11.80;;;7.90;;
58242;SDS011;50118;53.232;8.252;2023-04-24T07:08:30;9.82;;;7.60;;
58242;SDS011;50118;53.232;8.252;2023-04-24T07:10:56;11.80;;;8.20;;
58242;SDS011;50118;53.232;8.252;2023-04-24T07:13:22;12.25;;;8.60;;
58242;SDS011;50118;53.232;8.252;2023-04-24T07:15:48;11.32;;;8.00;;
58242;SDS011;50118;53.232;8.252;2023-04-24T07:18:15;10.95;;;7.95;;
58242;SDS011;50118;53.232;8.252;2023-04-24T07:20:41;10.45;;;7.93;;
58242;SDS011;50118;53.232;8.252;2023-04-24T07:23:06;9.50;;;7.18;;
58242;SDS011;50118;53.232;8.252;2023-04-24T07:25:32;10.75;;;7.78;;
58242;SDS011;50118;53.232;8.252;2023-04-24T07:27:58;10.52;;;7.43;;
58242;SDS011;50118;53.232;8.252;2023-04-24T07:30:23;10.55;;;7.72;;
58242;SDS011;50118;53.232;8.252;2023-04-24T07:32:49;10.90;;;7.43;;
58242;SDS011;50118;53.232;8.252;2023-04-24T07:35:15;11.00;;;8.00;;
58242;SDS011;50118;53.232;8.252;2023-04-24T07:37:40;13.30;;;8.30;;
58242;SDS011;50118;53.232;8.252;2023-04-24T07:40:10;15.27;;;9.13;;
58242;SDS011;50118;53.232;8.252;2023-04-24T07:42:39;11.80;;;8.63;;
58242;SDS011;50118;53.232;8.252;2023-04-24T07:45:05;12.38;;;8.70;;
58242;SDS011;50118;53.232;8.252;2023-04-24T07:47:31;13.98;;;8.82;;
58242;SDS011;50118;53.232;8.252;2023-04-24T07:49:57;11.75;;;8.77;;
58242;SDS011;50118;53.232;8.252;2023-04-24T07:52:23;10.70;;;8.10;;
58242;SDS011;50118;53.232;8.252;2023-04-24T07:54:49;12.68;;;9.10;;
58242;SDS011;50118;53.232;8.252;2023-04-24T07:57:15;12.57;;;8.80;;
58242;SDS011;50118;53.232;8.252;2023-04-24T07:59:41;12.90;;;9.10;;
58242;SDS011;50118;53.232;8.252;2023-04-24T08:02:06;11.65;;;9.30;;
58242;SDS011;50118;53.232;8.252;2023-04-24T08:04:32;11.57;;;8.32;;
58242;SDS011;50118;53.232;8.252;2023-04-24T08:06:57;11.68;;;8.98;;
58242;SDS011;50118;53.232;8.252;2023-04-24T08:09:23;12.13;;;8.52;;
58242;SDS011;50118;53.232;8.252;2023-04-24T08:11:48;12.55;;;8.90;;
58242;SDS011;50118;53.232;8.252;2023-04-24T08:14:13;10.85;;;8.55;;
58242;SDS011;50118;53.232;8.252;2023-04-24T08:16:40;12.50;;;8.15;;
58242;SDS011;50118;53.232;8.252;2023-04-24T08:19:05;11.05;;;8.50;;
58242;SDS011;50118;53.232;8.252;2023-04-24T08:21:31;11.98;;;8.00;;
58242;SDS011;50118;53.232;8.252;2023-04-24T08:23:57;13.55;;;8.02;;
58242;SDS011;50118;53.232;8.252;2023-04-24T08:26:22;12.35;;;8.15;;
58242;SDS011;50118;53.232;8.252;2023-04-24T08:28:48;9.80;;;7.78;;
58242;SDS011;50118;53.232;8.252;2023-04-24T08:31:13;9.13;;;6.47;;
58242;SDS011;50118;53.232;8.252;2023-04-24T08:33:38;10.48;;;7.20;;
58242;SDS011;50118;53.232;8.252;2023-04-24T08:36:05;10.13;;;7.35;;
58242;SDS011;50118;53.232;8.252;2023-04-24T08:38:31;9.60;;;7.20;;
58242;SDS011;50118;53.232;8.252;2023-04-24T08:40:58;10.18;;;7.25;;
58242;SDS011;50118;53.232;8.252;2023-04-24T08:43:24;9.95;;;7.05;;
58242;SDS011;50118;53.232;8.252;2023-04-24T08:45:51;8.48;;;6.47;;
58242;SDS011;50118;53.232;8.252;2023-04-24T08:48:17;8.80;;;6.95;;
58242;SDS011;50118;53.232;8.252;2023-04-24T08:50:43;10.10;;;6.25;;
58242;SDS011;50118;53.232;8.252;2023-04-24T08:53:09;10.30;;;6.55;;
58242;SDS011;50118;53.232;8.252;2023-04-24T08:55:36;8.93;;;6.60;;
58242;SDS011;50118;53.232;8.252;2023-04-24T08:58:02;9.30;;;7.00;;
58242;SDS011;50118;53.232;8.252;2023-04-24T09:00:29;8.82;;;6.18;;
58242;SDS011;50118;53.232;8.252;2023-04-24T09:02:55;8.85;;;6.45;;
58242;SDS011;50118;53.232;8.252;2023-04-24T09:05:21;9.02;;;6.47;;
58242;SDS011;50118;53.232;8.252;2023-04-24T09:07:55;8.52;;;6.22;;
58242;SDS011;50118;53.232;8.252;2023-04-24T09:10:23;9.65;;;6.32;;
58242;SDS011;50118;53.232;8.252;2023-04-24T09:12:52;8.95;;;6.05;;
58242;SDS011;50118;53.232;8.252;2023-04-24T09:15:18;8.13;;;6.20;;
58242;SDS011;50118;53.232;8.252;2023-04-24T09:17:45;9.95;;;5.90;;
58242;SDS011;50118;53.232;8.252;2023-04-24T09:20:11;7.40;;;5.82;;
58242;SDS011;50118;53.232;8.252;2023-04-24T09:22:36;7.88;;;5.95;;
58242;SDS011;50118;53.232;8.252;2023-04-24T09:25:06;7.57;;;5.90;;
58242;SDS011;50118;53.232;8.252;2023-04-24T09:27:33;7.57;;;5.40;;
58242;SDS011;50118;53.232;8.252;2023-04-24T09:29:58;8.98;;;6.10;;
58242;SDS011;50118;53.232;8.252;2023-04-24T09:32:25;7.40;;;5.38;;
58242;SDS011;50118;53.232;8.252;2023-04-24T09:35:12;7.72;;;5.65;;
58242;SDS011;50118;53.232;8.252;2023-04-24T09:37:41;9.35;;;5.95;;
58242;SDS011;50118;53.232;8.252;2023-04-24T09:40:09;9.52;;;6.90;;
58242;SDS011;50118;53.232;8.252;2023-04-24T09:45:17;10.68;;;7.07;;
58242;SDS011;50118;53.232;8.252;2023-04-24T09:47:42;9.35;;;6.82;;
58242;SDS011;50118;53.232;8.252;2023-04-24T09:50:11;10.77;;;7.55;;
58242;SDS011;50118;53.232;8.252;2023-04-24T09:52:45;11.20;;;6.78;;
58242;SDS011;50118;53.232;8.252;2023-04-24T09:55:20;9.32;;;7.28;;
58242;SDS011;50118;53.232;8.252;2023-04-24T09:57:46;11.93;;;7.45;;
58242;SDS011;50118;53.232;8.252;2023-04-24T10:00:21;12.30;;;7.50;;
58242;SDS011;50118;53.232;8.252;2023-04-24T10:02:57;10.07;;;7.55;;
58242;SDS011;50118;53.232;8.252;2023-04-24T10:05:28;10.10;;;7.85;;
58242;SDS011;50118;53.232;8.252;2023-04-24T10:10:34;11.80;;;7.55;;
58242;SDS011;50118;53.232;8.252;2023-04-24T10:13:03;8.30;;;6.28;;
58242;SDS011;50118;53.232;8.252;2023-04-24T10:15:29;8.35;;;6.57;;
58242;SDS011;50118;53.232;8.252;2023-04-24T10:17:55;8.35;;;6.60;;
58242;SDS011;50118;53.232;8.252;2023-04-24T10:20:24;10.02;;;7.10;;
58242;SDS011;50118;53.232;8.252;2023-04-24T10:22:51;9.10;;;6.82;;
58242;SDS011;50118;53.232;8.252;2023-04-24T10:25:22;9.02;;;6.35;;
58242;SDS011;50118;53.232;8.252;2023-04-24T10:27:49;10.32;;;6.95;;
58242;SDS011;50118;53.232;8.252;2023-04-24T10:30:16;7.90;;;5.85;;
58242;SDS011;50118;53.232;8.252;2023-04-24T10:32:43;8.00;;;5.63;;
58242;SDS011;50118;53.232;8.252;2023-04-24T10:35:09;7.95;;;4.97;;
58242;SDS011;50118;53.232;8.252;2023-04-24T10:37:37;6.68;;;4.80;;
58242;SDS011;50118;53.232;8.252;2023-04-24T10:40:05;6.88;;;5.00;;
58242;SDS011;50118;53.232;8.252;2023-04-24T10:42:33;7.25;;;4.60;;
58242;SDS011;50118;53.232;8.252;2023-04-24T10:44:58;7.97;;;4.80;;
58242;SDS011;50118;53.232;8.252;2023-04-24T10:47:26;7.75;;;4.72;;
58242;SDS011;50118;53.232;8.252;2023-04-24T10:49:52;6.22;;;3.83;;
58242;SDS011;50118;53.232;8.252;2023-04-24T10:52:18;5.35;;;3.80;;
58242;SDS011;50118;53.232;8.252;2023-04-24T10:54:44;6.93;;;4.15;;
58242;SDS011;50118;53.232;8.252;2023-04-24T10:59:47;6.47;;;3.78;;
58242;SDS011;50118;53.232;8.252;2023-04-24T11:02:19;5.70;;;3.45;;
58242;SDS011;50118;53.232;8.252;2023-04-24T11:05:04;5.20;;;3.65;;
58242;SDS011;50118;53.232;8.252;2023-04-24T11:07:30;5.35;;;3.78;;
58242;SDS011;50118;53.232;8.252;2023-04-24T11:10:34;5.75;;;4.00;;
58242;SDS011;50118;53.232;8.252;2023-04-24T11:13:03;5.65;;;3.72;;
58242;SDS011;50118;53.232;8.252;2023-04-24T11:15:29;5.40;;;3.65;;
58242;SDS011;50118;53.232;8.252;2023-04-24T11:17:55;5.43;;;3.85;;
58242;SDS011;50118;53.232;8.252;2023-04-24T11:20:22;5.10;;;3.85;;
58242;SDS011;50118;53.232;8.252;2023-04-24T11:22:49;7.32;;;4.25;;
58242;SDS011;50118;53.232;8.252;2023-04-24T11:25:22;7.43;;;4.57;;
58242;SDS011;50118;53.232;8.252;2023-04-24T11:27:48;5.32;;;4.10;;
58242;SDS011;50118;53.232;8.252;2023-04-24T11:30:18;5.93;;;3.88;;
58242;SDS011;50118;53.232;8.252;2023-04-24T11:32:47;6.00;;;4.47;;
58242;SDS011;50118;53.232;8.252;2023-04-24T11:35:16;6.18;;;3.92;;
58242;SDS011;50118;53.232;8.252;2023-04-24T11:37:42;6.20;;;3.90;;
58242;SDS011;50118;53.232;8.252;2023-04-24T11:40:10;6.30;;;4.00;;
58242;SDS011;50118;53.232;8.252;2023-04-24T11:42:39;6.20;;;4.20;;
58242;SDS011;50118;53.232;8.252;2023-04-24T11:45:12;7.38;;;4.25;;
58242;SDS011;50118;53.232;8.252;2023-04-24T11:47:40;7.75;;;4.65;;
58242;SDS011;50118;53.232;8.252;2023-04-24T11:50:07;8.98;;;4.22;;
58242;SDS011;50118;53.232;8.252;2023-04-24T11:52:38;7.13;;;4.47;;
58242;SDS011;50118;53.232;8.252;2023-04-24T11:55:26;7.10;;;4.43;;
58242;SDS011;50118;53.232;8.252;2023-04-24T11:57:53;7.85;;;3.58;;
58242;SDS011;50118;53.232;8.252;2023-04-24T12:00:28;5.90;;;4.07;;
58242;SDS011;50118;53.232;8.252;2023-04-24T12:03:04;8.13;;;4.93;;
58242;SDS011;50118;53.232;8.252;2023-04-24T12:05:32;9.57;;;5.45;;
58242;SDS011;50118;53.232;8.252;2023-04-24T12:07:58;9.82;;;6.22;;
58242;SDS011;50118;53.232;8.252;2023-04-24T12:10:25;10.73;;;7.13;;
58242;SDS011;50118;53.232;8.252;2023-04-24T12:12:52;14.02;;;7.63;;
58242;SDS011;50118;53.232;8.252;2023-04-24T12:15:18;11.45;;;7.05;;
58242;SDS011;50118;53.232;8.252;2023-04-24T12:17:45;14.82;;;8.15;;
58242;SDS011;50118;53.232;8.252;2023-04-24T12:20:11;13.80;;;8.20;;
58242;SDS011;50118;53.232;8.252;2023-04-24T12:22:51;13.02;;;8.75;;
58242;SDS011;50118;53.232;8.252;2023-04-24T12:25:31;13.10;;;8.18;;
58242;SDS011;50118;53.232;8.252;2023-04-24T12:30:28;18.30;;;10.90;;
58242;SDS011;50118;53.232;8.252;2023-04-24T12:32:57;19.10;;;12.40;;
58242;SDS011;50118;53.232;8.252;2023-04-24T12:35:24;18.77;;;12.52;;
58242;SDS011;50118;53.232;8.252;2023-04-24T12:37:51;20.30;;;12.00;;
58242;SDS011;50118;53.232;8.252;2023-04-24T12:40:16;18.95;;;13.13;;
58242;SDS011;50118;53.232;8.252;2023-04-24T12:45:10;21.90;;;13.25;;
58242;SDS011;50118;53.232;8.252;2023-04-24T12:47:37;20.35;;;12.20;;
58242;SDS011;50118;53.232;8.252;2023-04-24T12:50:03;21.98;;;12.02;;
58242;SDS011;50118;53.232;8.252;2023-04-24T12:52:29;18.85;;;12.57;;
58242;SDS011;50118;53.232;8.252;2023-04-24T12:54:58;18.38;;;11.23;;
58242;SDS011;50118;53.232;8.252;2023-04-24T12:57:26;17.50;;;11.05;;
58242;SDS011;50118;53.232;8.252;2023-04-24T12:59:53;18.48;;;9.48;;
58242;SDS011;50118;53.232;8.252;2023-04-24T13:02:20;17.52;;;9.93;;
58242;SDS011;50118;53.232;8.252;2023-04-24T13:04:47;16.55;;;9.50;;
58242;SDS011;50118;53.232;8.252;2023-04-24T13:07:13;19.45;;;9.57;;
58242;SDS011;50118;53.232;8.252;2023-04-24T13:09:39;15.27;;;9.68;;
58242;SDS011;50118;53.232;8.252;2023-04-24T13:12:06;14.40;;;8.93;;
58242;SDS011;50118;53.232;8.252;2023-04-24T13:14:32;16.58;;;9.27;;
58242;SDS011;50118;53.232;8.252;2023-04-24T13:16:57;18.65;;;9.40;;
58242;SDS011;50118;53.232;8.252;2023-04-24T13:19:24;16.85;;;9.52;;
58242;SDS011;50118;53.232;8.252;2023-04-24T13:21:50;13.70;;;8.93;;
58242;SDS011;50118;53.232;8.252;2023-04-24T13:24:16;16.80;;;9.20;;
58242;SDS011;50118;53.232;8.252;2023-04-24T13:26:42;20.23;;;9.35;;
58242;SDS011;50118;53.232;8.252;2023-04-24T13:29:07;19.15;;;9.38;;
58242;SDS011;50118;53.232;8.252;2023-04-24T13:31:33;16.35;;;9.07;;
58242;SDS011;50118;53.232;8.252;2023-04-24T13:33:58;16.02;;;9.43;;
58242;SDS011;50118;53.232;8.252;2023-04-24T13:36:23;17.67;;;9.55;;
58242;SDS011;50118;53.232;8.252;2023-04-24T13:38:49;15.98;;;8.40;;
58242;SDS011;50118;53.232;8.252;2023-04-24T13:41:15;14.48;;;8.15;;
58242;SDS011;50118;53.232;8.252;2023-04-24T13:43:40;16.42;;;8.27;;
58242;SDS011;50118;53.232;8.252;2023-04-24T13:46:07;13.95;;;7.97;;
58242;SDS011;50118;53.232;8.252;2023-04-24T13:48:33;14.80;;;7.25;;
58242;SDS011;50118;53.232;8.252;2023-04-24T13:50:59;14.23;;;7.57;;
58242;SDS011;50118;53.232;8.252;2023-04-24T13:53:24;11.88;;;7.57;;
58242;SDS011;50118;53.232;8.252;2023-04-24T13:55:50;15.20;;;7.05;;
58242;SDS011;50118;53.232;8.252;2023-04-24T13:58:15;12.13;;;7.30;;
58242;SDS011;50118;53.232;8.252;2023-04-24T14:00:40;18.20;;;7.47;;
58242;SDS011;50118;53.232;8.252;2023-04-24T14:03:06;12.63;;;7.25;;
58242;SDS011;50118;53.232;8.252;2023-04-24T14:05:31;15.70;;;7.82;;
58242;SDS011;50118;53.232;8.252;2023-04-24T14:07:56;14.10;;;7.20;;
58242;SDS011;50118;53.232;8.252;2023-04-24T14:10:22;15.30;;;6.90;;
58242;SDS011;50118;53.232;8.252;2023-04-24T14:12:47;16.00;;;7.85;;
58242;SDS011;50118;53.232;8.252;2023-04-24T14:15:13;14.90;;;6.63;;
58242;SDS011;50118;53.232;8.252;2023-04-24T14:17:38;12.07;;;6.18;;
58242;SDS011;50118;53.232;8.252;2023-04-24T14:20:04;15.05;;;5.85;;
58242;SDS011;50118;53.232;8.252;2023-04-24T14:22:31;14.93;;;6.72;;
58242;SDS011;50118;53.232;8.252;2023-04-24T14:24:57;11.48;;;6.28;;
58242;SDS011;50118;53.232;8.252;2023-04-24T14:27:23;11.52;;;6.03;;
58242;SDS011;50118;53.232;8.252;2023-04-24T14:29:50;12.63;;;6.50;;
58242;SDS011;50118;53.232;8.252;2023-04-24T14:32:18;11.57;;;6.05;;
58242;SDS011;50118;53.232;8.252;2023-04-24T14:34:43;11.07;;;5.88;;
58242;SDS011;50118;53.232;8.252;2023-04-24T14:37:09;14.70;;;6.00;;
58242;SDS011;50118;53.232;8.252;2023-04-24T14:39:34;11.25;;;6.10;;
58242;SDS011;50118;53.232;8.252;2023-04-24T14:42:00;16.27;;;6.43;;
58242;SDS011;50118;53.232;8.252;2023-04-24T14:44:28;14.55;;;6.68;;
58242;SDS011;50118;53.232;8.252;2023-04-24T14:46:53;10.73;;;5.63;;
58242;SDS011;50118;53.232;8.252;2023-04-24T14:49:19;11.05;;;5.60;;